createdAt,value
2018-04-06T14:36:33.193Z,1800
2018-04-06T14:36:53.446Z,1800
2018-04-06T14:37:13.589Z,1808
2018-04-06T14:37:33.814Z,1812
2018-04-06T14:37:54.009Z,1812
2018-04-06T14:38:14.172Z,1812
2018-04-06T14:38:34.389Z,1820
2018-04-06T14:38:54.618Z,1824
2018-04-06T14:39:14.812Z,1824
2018-04-06T14:39:35.190Z,1820
2018-04-06T14:39:55.425Z,1820
2018-04-06T14:40:15.662Z,1824
2018-04-06T14:40:35.896Z,1824
2018-04-06T14:40:56.119Z,1824
2018-04-06T14:41:16.463Z,1824
2018-04-06T14:41:36.689Z,1820
2018-04-06T14:41:56.890Z,1820
2018-04-06T14:42:17.075Z,1820
2018-04-06T14:42:37.292Z,1820
2018-04-06T14:42:57.532Z,1820
2018-04-06T14:43:17.786Z,1820
2018-04-06T14:43:37.983Z,1820
2018-04-06T14:43:58.164Z,1816
2018-04-06T14:44:18.388Z,1816
2018-04-06T14:44:38.598Z,1816
2018-04-06T14:44:58.845Z,1820
2018-04-06T14:45:19.022Z,1816
2018-04-06T14:45:39.230Z,1816
2018-04-06T14:45:59.422Z,1816
2018-04-06T14:46:19.651Z,1816
2018-04-06T14:46:39.837Z,1816
2018-04-06T14:47:00.015Z,1816
2018-04-06T14:47:20.247Z,1816
2018-04-06T14:47:40.443Z,1816
2018-04-06T14:48:00.661Z,1812
2018-04-06T14:48:20.888Z,1816
2018-04-06T14:48:41.120Z,1812
2018-04-06T14:49:01.288Z,1812
2018-04-06T14:49:21.504Z,1812
2018-04-06T14:49:41.698Z,1808
2018-04-06T14:50:01.896Z,1808
2018-04-06T14:50:22.112Z,1808
2018-04-06T14:50:42.341Z,1808
2018-04-06T14:51:02.514Z,1808
2018-04-06T14:51:22.696Z,1808
2018-04-06T14:51:42.895Z,1804
2018-04-06T14:52:03.060Z,1808
2018-04-06T14:52:23.297Z,1804
2018-04-06T14:52:43.603Z,1808
2018-04-06T14:53:03.839Z,1804
2018-04-06T14:53:24.105Z,1804
2018-04-06T14:53:44.304Z,1804
2018-04-06T14:54:04.542Z,1804
2018-04-06T14:54:24.769Z,1808
2018-04-06T14:54:44.993Z,1800
2018-04-06T14:55:05.199Z,1776
2018-04-06T14:55:25.406Z,1776
2018-04-06T14:55:45.601Z,1788
2018-04-06T14:56:05.807Z,1796
2018-04-06T14:56:25.998Z,1792
2018-04-06T14:56:46.285Z,1780
2018-04-06T14:57:06.492Z,1796
2018-04-06T14:57:26.718Z,1788
2018-04-06T14:57:46.909Z,1788
2018-04-06T14:58:07.173Z,1784
2018-04-06T14:58:27.419Z,1792
2018-04-06T14:58:48.443Z,1788
2018-04-06T14:59:08.677Z,1792
2018-04-06T14:59:28.841Z,1792
2018-04-06T14:59:49.110Z,1792
2018-04-06T15:00:09.315Z,1788
2018-04-06T15:00:29.518Z,1788
2018-04-06T15:00:49.742Z,1788
2018-04-06T15:01:09.955Z,1788
2018-04-06T15:01:30.156Z,1788
2018-04-06T15:01:51.413Z,1784
2018-04-06T15:02:11.605Z,1784
2018-04-06T15:02:31.828Z,1784
2018-04-06T15:02:52.070Z,1784
2018-04-06T15:03:12.274Z,1784
2018-04-06T15:03:32.490Z,1780
2018-04-06T15:03:52.682Z,1784
2018-04-06T15:04:12.926Z,1780
2018-04-06T15:04:33.162Z,1780
2018-04-06T15:04:53.385Z,1776
2018-04-06T15:05:13.580Z,1780
2018-04-06T15:05:33.771Z,1776
2018-04-06T15:05:54.031Z,1776
2018-04-06T15:06:14.292Z,1776
2018-04-06T15:06:34.585Z,1776
2018-04-06T15:06:54.824Z,1776
2018-04-06T15:07:15.058Z,1776
2018-04-06T15:07:35.299Z,1772
2018-04-06T15:07:55.522Z,1772
2018-04-06T15:08:15.725Z,1776
2018-04-06T15:08:35.965Z,1776
2018-04-06T15:08:56.204Z,1776
2018-04-06T15:09:16.393Z,1772
2018-04-06T15:09:36.644Z,1772
2018-04-06T15:09:56.860Z,1776
2018-04-06T15:10:17.054Z,1772
2018-04-06T15:10:37.310Z,1772
2018-04-06T15:10:57.545Z,1768
2018-04-06T15:11:17.712Z,1764
2018-04-06T15:11:37.964Z,1764
2018-04-06T15:11:58.228Z,1764
2018-04-06T15:12:18.461Z,1760
2018-04-06T15:12:38.671Z,1764
2018-04-06T15:12:58.846Z,1760
2018-04-06T15:13:19.068Z,1760
2018-04-06T15:13:39.312Z,1760
2018-04-06T15:13:59.534Z,1756
2018-04-06T15:14:19.729Z,1760
2018-04-06T15:14:39.938Z,1760
2018-04-06T15:15:00.172Z,1756
2018-04-06T15:15:20.388Z,1756
2018-04-06T15:15:40.575Z,1756
2018-04-06T15:16:00.783Z,1756
2018-04-06T15:16:20.985Z,1756
2018-04-06T15:16:41.194Z,1756
2018-04-06T15:17:01.406Z,1752
2018-04-06T15:17:21.603Z,1752
2018-04-06T15:17:41.795Z,1756
2018-04-06T15:18:02.010Z,1752
2018-04-06T15:18:22.256Z,1752
2018-04-06T15:18:42.442Z,1752
2018-04-06T15:19:02.628Z,1752
2018-04-06T15:19:22.829Z,1756
2018-04-06T15:19:43.020Z,1752
2018-04-06T15:20:03.211Z,1752
2018-04-06T15:20:23.406Z,1752
2018-04-06T15:20:43.579Z,1752
2018-04-06T15:21:03.769Z,1752
2018-04-06T15:21:24.012Z,1752
2018-04-06T15:21:44.202Z,1748
2018-04-06T15:22:04.396Z,1744
2018-04-06T15:22:24.598Z,1744
2018-04-06T15:22:44.815Z,1744
2018-04-06T15:23:05.082Z,1740
2018-04-06T15:23:25.330Z,1740
2018-04-06T15:23:45.570Z,1740
2018-04-06T15:24:05.773Z,1732
2018-04-06T15:24:26.025Z,1736
2018-04-06T15:24:46.269Z,1732
2018-04-06T15:25:06.465Z,1728
2018-04-06T15:25:26.680Z,1732
2018-04-06T15:25:46.872Z,1728
2018-04-06T15:26:07.092Z,1732
2018-04-06T15:26:27.293Z,1728
2018-04-06T15:26:47.504Z,1728
2018-04-06T15:27:07.681Z,1728
2018-04-06T15:27:27.874Z,1728
2018-04-06T15:27:48.125Z,1728
2018-04-06T15:28:08.381Z,1720
2018-04-06T15:28:28.653Z,1716
2018-04-06T15:28:48.849Z,1712
2018-04-06T15:29:09.032Z,1712
2018-04-06T15:29:29.260Z,1704
2018-04-06T15:29:49.491Z,1716
2018-04-06T15:30:09.672Z,1716
2018-04-06T15:30:29.833Z,1716
2018-04-06T15:30:50.030Z,1716
2018-04-06T15:31:10.237Z,1716
2018-04-06T15:31:30.451Z,1712
2018-04-06T15:31:50.706Z,1716
2018-04-06T15:32:10.951Z,1712
2018-04-06T15:32:31.172Z,1716
2018-04-06T15:32:51.721Z,1720
2018-04-06T15:33:11.951Z,1720
2018-04-06T15:33:32.205Z,1720
2018-04-06T15:33:52.404Z,1720
2018-04-06T15:34:12.622Z,1720
2018-04-06T15:34:32.839Z,1720
2018-04-06T15:34:53.038Z,1720
2018-04-06T15:35:13.264Z,1720
2018-04-06T15:35:33.621Z,1724
2018-04-06T15:35:53.808Z,1724
2018-04-06T15:36:14.079Z,1724
2018-04-06T15:36:34.355Z,1724
2018-04-06T15:36:54.662Z,1724
2018-04-06T15:37:15.469Z,1724
2018-04-06T15:37:35.761Z,1728
2018-04-06T15:37:55.963Z,1728
2018-04-06T15:38:16.245Z,1736
2018-04-06T15:38:36.503Z,1732
2018-04-06T15:38:56.727Z,1736
2018-04-06T15:39:16.997Z,1740
2018-04-06T15:40:17.127Z,1744
2018-04-06T15:40:37.377Z,1748
2018-04-06T15:40:57.592Z,1752
2018-04-06T15:41:17.847Z,1752
2018-04-06T15:41:38.039Z,1756
2018-04-06T15:41:58.275Z,1764
2018-04-06T15:42:18.573Z,1764
2018-04-06T15:42:38.807Z,1768
2018-04-06T15:42:59.017Z,1772
2018-04-06T15:43:19.227Z,1776
2018-04-06T15:43:39.430Z,1780
2018-04-06T15:43:59.683Z,1788
2018-04-06T15:44:19.903Z,1792
2018-04-06T15:44:40.143Z,1796
2018-04-06T15:45:00.393Z,1800
2018-04-06T15:45:20.599Z,1804
2018-04-06T15:45:40.888Z,1812
2018-04-06T15:46:01.163Z,1812
2018-04-06T15:46:21.392Z,1820
2018-04-06T15:46:41.625Z,1828
2018-04-06T15:47:01.917Z,1836
2018-04-06T15:47:22.791Z,1840
2018-04-06T15:47:44.355Z,1844
2018-04-06T15:48:06.072Z,1848
2018-04-06T15:48:27.206Z,1852
2018-04-06T15:48:49.648Z,1856
2018-04-06T15:49:10.962Z,1856
2018-04-06T15:49:31.228Z,1848
2018-04-06T15:49:51.954Z,1844
2018-04-06T15:50:12.133Z,1844
2018-04-06T15:50:32.565Z,1852
2018-04-06T15:50:53.002Z,1856
2018-04-06T15:51:13.654Z,1864
2018-04-06T15:51:35.823Z,1872
2018-04-06T15:51:56.119Z,1880
2018-04-06T15:52:16.375Z,1880
2018-04-06T15:52:36.611Z,1868
2018-04-06T15:52:56.846Z,1868
2018-04-06T15:53:17.134Z,1872
2018-04-06T15:53:37.355Z,1876
2018-04-06T15:53:57.613Z,1868
2018-04-06T15:54:17.928Z,1872
2018-04-06T15:54:38.149Z,1880
2018-04-06T15:54:58.365Z,1884
2018-04-06T15:55:18.567Z,1896
2018-04-06T15:55:38.857Z,1912
2018-04-06T15:56:00.010Z,1932
2018-04-06T15:56:20.225Z,1952
2018-04-06T15:56:40.408Z,1956
2018-04-06T15:57:00.813Z,1964
2018-04-06T15:57:21.046Z,1968
2018-04-06T15:57:41.286Z,1956
2018-04-06T15:58:01.583Z,1956
2018-04-06T15:58:21.816Z,1952
2018-04-06T15:58:42.078Z,1956
2018-04-06T15:59:02.345Z,1956
2018-04-06T15:59:22.640Z,1972
2018-04-06T15:59:43.858Z,1984
2018-04-06T16:00:04.228Z,1992
2018-04-06T16:00:24.498Z,2012
2018-04-06T16:00:44.847Z,2032
2018-04-06T16:01:05.028Z,2040
2018-04-06T16:01:25.310Z,2048
2018-04-06T16:01:45.531Z,2056
2018-04-06T16:02:05.763Z,2064
2018-04-06T16:02:25.947Z,2064
2018-04-06T16:02:46.197Z,2060
2018-04-06T16:03:06.444Z,2028
2018-04-06T16:03:26.611Z,1968
2018-04-06T16:03:46.817Z,1892
2018-04-06T16:04:07.018Z,1800
2018-04-06T16:04:27.204Z,1716
2018-04-06T16:04:47.371Z,1640
2018-04-06T16:05:07.605Z,1556
2018-04-06T16:05:27.783Z,1488
2018-04-06T16:05:48.002Z,1440
2018-04-06T16:06:08.205Z,1400
2018-04-06T16:06:28.426Z,1356
2018-04-06T16:06:48.652Z,1324
2018-04-06T16:07:09.146Z,1304
2018-04-06T16:07:29.400Z,1280
2018-04-06T16:07:49.694Z,1256
2018-04-06T16:08:11.328Z,1240
2018-04-06T16:08:31.571Z,1228
2018-04-06T16:08:51.858Z,1216
2018-04-06T16:09:12.102Z,1208
2018-04-06T16:09:32.541Z,1204
2018-04-06T16:09:54.392Z,1200
2018-04-06T16:10:14.629Z,1196
2018-04-06T16:10:34.871Z,1196
2018-04-06T16:10:55.125Z,1196
2018-04-06T16:11:15.310Z,1188
2018-04-06T16:11:35.501Z,1192
2018-04-06T16:11:55.699Z,1192
2018-04-06T16:12:15.959Z,1188
2018-04-06T16:12:36.220Z,1188
2018-04-06T16:12:56.415Z,1192
2018-04-06T16:13:16.676Z,1196
2018-04-06T16:13:37.515Z,1200
2018-04-06T16:13:57.735Z,1204
2018-04-06T16:14:17.955Z,1216
2018-04-06T16:14:38.143Z,1232
2018-04-06T16:14:58.422Z,1240
2018-04-06T16:15:18.647Z,1236
2018-04-06T16:15:38.877Z,1224
2018-04-06T16:15:59.087Z,1216
2018-04-06T16:16:19.262Z,1204
2018-04-06T16:16:39.460Z,1188
2018-04-06T16:16:59.750Z,1176
2018-04-06T16:17:19.927Z,1172
2018-04-06T16:17:40.104Z,1160
2018-04-06T16:18:00.308Z,1160
2018-04-06T16:18:20.493Z,1152
2018-04-06T16:18:40.695Z,1152
2018-04-06T16:19:00.885Z,1148
2018-04-06T16:19:21.100Z,1144
2018-04-06T16:19:41.368Z,1144
2018-04-06T16:20:01.591Z,1144
2018-04-06T16:20:21.837Z,1140
2018-04-06T16:20:42.024Z,1136
2018-04-06T16:21:02.291Z,1136
2018-04-06T16:21:22.512Z,1132
2018-04-06T16:21:42.739Z,1132
2018-04-06T16:22:02.905Z,1132
2018-04-06T16:22:23.113Z,1128
2018-04-06T16:22:43.295Z,1128
2018-04-06T16:23:03.589Z,1128
2018-04-06T16:23:23.794Z,1128
2018-04-06T16:23:43.996Z,1124
2018-04-06T16:24:04.240Z,1120
2018-04-06T16:24:24.422Z,1116
2018-04-06T16:24:44.612Z,1116
2018-04-06T16:25:04.857Z,1112
2018-04-06T16:25:25.070Z,1108
2018-04-06T16:25:45.294Z,1108
2018-04-06T16:26:05.489Z,1108
2018-04-06T16:26:25.740Z,1104
2018-04-06T16:26:45.995Z,1100
2018-04-06T16:27:06.303Z,1096
2018-04-06T16:27:26.502Z,1096
2018-04-06T16:27:46.768Z,1096
2018-04-06T16:28:06.953Z,1088
2018-04-06T16:28:27.192Z,1088
2018-04-06T16:28:47.426Z,1088
2018-04-06T16:29:07.731Z,1080
2018-04-06T16:29:27.919Z,1080
2018-04-06T16:29:48.158Z,1080
2018-04-06T16:30:08.368Z,1076
2018-04-06T16:30:28.620Z,1072
2018-04-06T16:30:48.812Z,1072
2018-04-06T16:31:09.044Z,1068
2018-04-06T16:31:29.312Z,1064
2018-04-06T16:31:49.538Z,1064
2018-04-06T16:32:09.813Z,1060
2018-04-06T16:32:30.153Z,1056
2018-04-06T16:32:50.436Z,1056
2018-04-06T16:33:10.725Z,1052
2018-04-06T16:33:31.087Z,1048
2018-04-06T16:33:51.370Z,1048
2018-04-06T16:34:11.729Z,1044
2018-04-06T16:34:31.958Z,1040
2018-04-06T16:34:52.292Z,1036
2018-04-06T16:35:12.547Z,1036
2018-04-06T16:35:32.833Z,1032
2018-04-06T16:35:53.148Z,1028
2018-04-06T16:36:13.506Z,1028
2018-04-06T16:36:34.593Z,1024
2018-04-06T16:36:54.844Z,1020
2018-04-06T16:37:15.090Z,1020
2018-04-06T16:37:35.376Z,1020
2018-04-06T16:37:55.561Z,1016
2018-04-06T16:38:15.777Z,1008
2018-04-06T16:38:36.048Z,1008
2018-04-06T16:38:56.393Z,1008
2018-04-06T16:39:16.583Z,1004
2018-04-06T16:39:36.911Z,1000
2018-04-06T16:39:57.139Z,996
2018-04-06T16:40:17.405Z,992
2018-04-06T16:40:37.605Z,988
2018-04-06T16:40:57.823Z,988
2018-04-06T16:41:18.099Z,984
2018-04-06T16:41:38.395Z,980
2018-04-06T16:41:58.640Z,976
2018-04-06T16:42:18.882Z,976
2018-04-06T16:42:39.225Z,972
2018-04-06T16:42:59.433Z,968
2018-04-06T16:43:19.730Z,964
2018-04-06T16:43:40.018Z,964
2018-04-06T16:44:00.263Z,960
2018-04-06T16:44:20.476Z,956
2018-04-06T16:44:40.751Z,952
2018-04-06T16:45:00.950Z,948
2018-04-06T16:45:21.224Z,948
2018-04-06T16:45:41.415Z,940
2018-04-06T16:46:01.638Z,936
2018-04-06T16:46:21.858Z,932
2018-04-06T16:46:42.062Z,932
2018-04-06T16:47:02.337Z,928
2018-04-06T16:47:22.550Z,924
2018-04-06T16:47:42.783Z,924
2018-04-06T16:48:02.991Z,920
2018-04-06T16:48:23.188Z,916
2018-04-06T16:48:43.411Z,908
2018-04-06T16:49:03.676Z,908
2018-04-06T16:49:24.542Z,904
2018-04-06T16:49:44.826Z,900
2018-04-06T16:50:05.349Z,896
2018-04-06T16:50:25.612Z,892
2018-04-06T16:50:45.797Z,892
2018-04-06T16:51:05.995Z,884
2018-04-06T16:51:26.189Z,880
2018-04-06T16:51:46.413Z,876
2018-04-06T16:52:06.633Z,876
2018-04-06T16:52:26.832Z,872
2018-04-06T16:52:47.019Z,868
2018-04-06T16:53:07.292Z,864
2018-04-06T16:53:27.484Z,860
2018-04-06T16:53:47.691Z,856
2018-04-06T16:54:07.897Z,852
2018-04-06T16:54:28.143Z,848
2018-04-06T16:54:48.413Z,844
2018-04-06T16:55:08.633Z,840
2018-04-06T16:55:28.904Z,836
2018-04-06T16:55:49.216Z,832
2018-04-06T16:56:09.457Z,828
2018-04-06T16:56:29.696Z,828
2018-04-06T16:56:49.947Z,824
2018-04-06T16:57:10.185Z,816
2018-04-06T16:57:30.420Z,812
2018-04-06T16:57:50.675Z,808
2018-04-06T16:58:10.920Z,804
2018-04-06T16:58:31.224Z,800
2018-04-06T16:58:51.426Z,796
2018-04-06T16:59:11.693Z,792
2018-04-06T16:59:31.912Z,788
2018-04-06T16:59:52.150Z,780
2018-04-06T17:00:12.416Z,780
2018-04-06T17:00:32.595Z,776
2018-04-06T17:00:52.822Z,772
2018-04-06T17:01:13.038Z,768
2018-04-06T17:01:33.318Z,764
2018-04-06T17:01:53.564Z,760
2018-04-06T17:02:13.805Z,756
2018-04-06T17:02:34.097Z,748
2018-04-06T17:02:54.359Z,744
2018-04-06T17:03:15.549Z,740
2018-04-06T17:03:35.771Z,736
2018-04-06T17:03:56.032Z,732
2018-04-06T17:04:16.290Z,728
2018-04-06T17:04:36.515Z,720
2018-04-06T17:04:57.625Z,720
2018-04-06T17:05:17.808Z,712
2018-04-06T17:05:38.128Z,708
2018-04-06T17:05:58.348Z,704
2018-04-06T17:06:18.627Z,700
2018-04-06T17:06:38.913Z,696
2018-04-06T17:06:59.136Z,692
2018-04-06T17:07:19.455Z,684
2018-04-06T17:07:40.052Z,680
2018-04-06T17:08:00.326Z,676
2018-04-06T17:08:20.615Z,668
2018-04-06T17:08:40.991Z,664
2018-04-06T17:09:01.353Z,664
2018-04-06T17:09:21.539Z,656
2018-04-06T17:09:41.941Z,652
2018-04-06T17:10:02.135Z,648
2018-04-06T17:10:22.354Z,640
2018-04-06T17:10:42.649Z,636
2018-04-06T17:11:02.894Z,632
2018-04-06T17:11:23.121Z,624
2018-04-06T17:11:43.649Z,620
2018-04-06T17:12:03.840Z,616
2018-04-06T17:12:24.277Z,608
2018-04-06T17:12:44.606Z,604
2018-04-06T17:13:04.792Z,600
2018-04-06T17:13:25.028Z,596
2018-04-06T17:13:45.258Z,592
2018-04-06T17:14:05.552Z,584
2018-04-06T17:14:25.847Z,580
2018-04-06T17:14:46.107Z,572
2018-04-06T17:15:06.351Z,568
2018-04-06T17:15:26.666Z,564
2018-04-06T17:15:46.980Z,556
2018-04-06T17:16:07.214Z,552
2018-04-06T17:16:27.528Z,544
2018-04-06T17:16:47.780Z,540
2018-04-06T17:17:08.040Z,536
2018-04-06T17:17:28.326Z,532
2018-04-06T17:17:48.543Z,524
2018-04-06T17:18:08.856Z,520
2018-04-06T17:18:29.065Z,512
2018-04-06T17:18:49.305Z,508
2018-04-06T17:19:09.603Z,500
2018-04-06T17:19:29.791Z,496
2018-04-06T17:19:50.059Z,488
2018-04-06T17:20:10.298Z,484
2018-04-06T17:20:30.516Z,480
2018-04-06T17:20:50.712Z,472
2018-04-06T17:21:10.970Z,468
2018-04-06T17:21:31.218Z,460
2018-04-06T17:21:51.562Z,456
2018-04-06T17:22:11.813Z,452
2018-04-06T17:22:32.110Z,444
2018-04-06T17:22:52.431Z,436
2018-04-06T17:23:12.649Z,432
2018-04-06T17:23:32.877Z,424
2018-04-06T17:23:53.077Z,420
2018-04-06T17:24:13.337Z,416
2018-04-06T17:24:33.617Z,408
2018-04-06T17:24:53.864Z,400
2018-04-06T17:25:14.175Z,396
2018-04-06T17:25:34.961Z,388
2018-04-06T17:25:55.206Z,384
2018-04-06T17:26:15.418Z,376
2018-04-06T17:26:35.654Z,372
2018-04-06T17:26:55.889Z,364
2018-04-06T17:27:16.063Z,360
2018-04-06T17:27:36.278Z,352
2018-04-06T17:27:56.517Z,348
2018-04-06T17:28:16.748Z,344
2018-04-06T17:28:36.960Z,336
2018-04-06T17:28:57.158Z,332
2018-04-06T17:29:17.362Z,328
2018-04-06T17:29:37.575Z,316
2018-04-06T17:29:57.765Z,312
2018-04-06T17:30:17.967Z,304
2018-04-06T17:30:38.147Z,300
2018-04-06T17:30:58.345Z,296
2018-04-06T17:31:18.529Z,292
2018-04-06T17:31:38.740Z,284
2018-04-06T17:31:58.920Z,280
2018-04-06T17:32:19.196Z,272
2018-04-06T17:32:39.361Z,268
2018-04-06T17:32:59.641Z,260
2018-04-06T17:33:19.819Z,256
2018-04-06T17:33:40.076Z,252
2018-04-06T17:34:00.277Z,244
2018-04-06T17:34:20.504Z,240
2018-04-06T17:34:40.711Z,236
2018-04-06T17:35:00.916Z,228
2018-04-06T17:35:21.140Z,224
2018-04-06T17:35:41.327Z,216
2018-04-06T17:36:01.588Z,212
2018-04-06T17:36:21.839Z,204
2018-04-06T17:36:42.019Z,196
2018-04-06T17:37:02.262Z,192
2018-04-06T17:37:22.493Z,188
2018-04-06T17:37:42.710Z,184
2018-04-06T17:38:02.901Z,176
2018-04-06T17:38:23.162Z,172
2018-04-06T17:38:43.363Z,168
2018-04-06T17:39:05.099Z,160
2018-04-06T17:39:25.356Z,156
2018-04-06T17:39:45.610Z,152
2018-04-06T17:40:05.792Z,148
2018-04-06T17:40:25.991Z,144
2018-04-06T17:40:46.195Z,140
2018-04-06T17:41:06.481Z,136
2018-04-06T17:41:26.794Z,132
2018-04-06T17:41:46.986Z,124
2018-04-06T17:42:07.211Z,120
2018-04-06T17:42:27.470Z,120
2018-04-06T17:42:47.751Z,116
2018-04-06T17:43:08.036Z,112
2018-04-06T17:43:28.318Z,104
2018-04-06T17:43:48.570Z,104
2018-04-06T17:44:08.842Z,100
2018-04-06T17:44:29.140Z,96
2018-04-06T17:44:49.378Z,92
2018-04-06T17:45:09.607Z,88
2018-04-06T17:45:29.846Z,88
2018-04-06T17:45:50.123Z,84
2018-04-06T17:46:10.359Z,80
2018-04-06T17:46:30.520Z,76
2018-04-06T17:46:50.759Z,76
2018-04-06T17:47:11.049Z,76
2018-04-06T17:47:31.334Z,68
2018-04-06T17:47:51.547Z,64
2018-04-06T17:48:11.794Z,64
2018-04-06T17:48:32.262Z,60
2018-04-06T17:48:52.733Z,60
2018-04-06T17:49:12.955Z,60
2018-04-06T17:49:33.234Z,56
2018-04-06T17:49:53.603Z,56
2018-04-06T17:50:13.830Z,52
2018-04-06T17:50:34.082Z,52
2018-04-06T17:50:54.267Z,48
2018-04-06T17:51:14.470Z,44
2018-04-06T17:51:34.711Z,44
2018-04-06T17:51:54.968Z,40
2018-04-06T17:52:15.190Z,40
2018-04-06T17:52:35.398Z,40
2018-04-06T17:52:55.670Z,36
2018-04-06T17:53:15.976Z,36
2018-04-06T17:53:36.225Z,36
2018-04-06T17:53:56.633Z,36
2018-04-06T17:54:16.853Z,28
2018-04-06T17:54:37.144Z,28
2018-04-06T17:54:57.469Z,28
2018-04-06T17:55:17.769Z,28
2018-04-06T17:55:38.040Z,28
2018-04-06T17:55:58.376Z,24
2018-04-06T17:56:18.632Z,24
2018-04-06T17:56:38.893Z,24
2018-04-06T17:56:59.113Z,20
2018-04-06T17:57:19.344Z,20
2018-04-06T17:57:39.538Z,20
2018-04-06T17:57:59.805Z,20
2018-04-06T17:58:21.100Z,16
2018-04-06T17:58:41.323Z,16
2018-04-06T17:59:01.577Z,16
2018-04-06T17:59:21.773Z,12
2018-04-06T17:59:41.990Z,16
2018-04-06T18:00:02.298Z,12
2018-04-06T18:00:22.525Z,12
2018-04-06T18:00:42.786Z,12
2018-04-06T18:01:03.067Z,12
2018-04-06T18:01:23.286Z,8
2018-04-06T18:01:43.552Z,12
2018-04-06T18:02:03.810Z,8
2018-04-06T18:02:24.126Z,8
2018-04-06T18:02:44.462Z,8
2018-04-06T18:03:04.782Z,8
2018-04-06T18:03:25.060Z,8
2018-04-06T18:03:45.285Z,8
2018-04-06T18:04:05.530Z,4
2018-04-06T18:04:25.765Z,8
2018-04-06T18:04:46.069Z,8
2018-04-06T18:05:06.301Z,8
2018-04-06T18:05:26.602Z,4
2018-04-06T18:05:46.903Z,4
2018-04-06T18:06:07.184Z,4
2018-04-06T18:06:27.392Z,8
2018-04-06T18:06:47.695Z,4
2018-04-06T18:07:07.924Z,4
2018-04-06T18:07:28.189Z,4
2018-04-06T18:07:48.443Z,4
2018-04-06T18:08:08.695Z,4
2018-04-06T18:08:28.932Z,4
2018-04-06T18:08:49.207Z,0
2018-04-06T18:09:09.446Z,0
2018-04-06T18:09:29.666Z,4
2018-04-06T18:09:49.930Z,4
2018-04-06T18:10:10.206Z,4
2018-04-06T18:10:30.532Z,4
2018-04-06T18:10:50.800Z,4
2018-04-06T18:11:12.714Z,4
2018-04-06T18:11:33.154Z,4
2018-04-06T18:11:53.540Z,0
2018-04-06T18:12:13.780Z,0
2018-04-06T18:12:34.079Z,0
2018-04-06T18:12:54.419Z,0
2018-04-06T18:13:15.412Z,0
2018-04-06T18:13:35.729Z,0
2018-04-06T18:13:56.289Z,0
2018-04-06T18:14:16.631Z,0
2018-04-06T18:14:36.926Z,0
2018-04-06T18:14:58.375Z,0
2018-04-06T18:15:19.412Z,0
2018-04-06T18:15:39.896Z,0
2018-04-06T18:16:00.213Z,0
2018-04-06T18:16:20.540Z,0
2018-04-06T18:16:40.985Z,0
2018-04-06T18:17:01.304Z,0
2018-04-06T18:17:21.763Z,0
2018-04-06T18:17:42.217Z,0
2018-04-06T18:18:02.756Z,0
2018-04-06T18:18:23.057Z,0
2018-04-06T18:18:43.485Z,0
2018-04-06T18:19:03.741Z,0
2018-04-06T18:19:24.157Z,0
2018-04-06T18:19:44.532Z,0
2018-04-06T18:20:04.967Z,0
2018-04-06T18:20:25.197Z,0
2018-04-06T18:20:46.318Z,0
2018-04-06T18:21:06.568Z,0
2018-04-06T18:21:26.966Z,0
2018-04-06T18:21:47.148Z,0
2018-04-06T18:22:07.495Z,0
2018-04-06T18:22:27.688Z,0
2018-04-06T18:22:47.926Z,0
2018-04-06T18:23:08.221Z,0
2018-04-06T18:23:28.515Z,0
2018-04-06T18:23:48.699Z,0
2018-04-06T18:24:08.962Z,0
2018-04-06T18:24:29.266Z,0
2018-04-06T18:24:49.532Z,0
2018-04-06T18:25:09.781Z,0
2018-04-06T18:25:30.736Z,0
2018-04-06T18:25:50.958Z,0
2018-04-06T18:26:11.244Z,0
2018-04-06T18:26:31.504Z,0
2018-04-06T18:26:51.713Z,0
2018-04-06T18:27:12.003Z,0
2018-04-06T18:27:32.490Z,0
2018-04-06T18:27:52.733Z,0
2018-04-06T18:28:13.041Z,0
2018-04-06T18:28:34.380Z,0
2018-04-06T18:28:54.595Z,0
2018-04-06T18:29:14.828Z,0
2018-04-06T18:29:35.059Z,0
2018-04-06T18:29:55.317Z,0
2018-04-06T18:30:15.536Z,0
2018-04-06T18:30:35.792Z,0
2018-04-06T18:30:56.178Z,0
2018-04-06T18:31:16.471Z,0
2018-04-06T18:31:36.690Z,0
2018-04-06T18:31:56.972Z,0
2018-04-06T18:32:17.250Z,0
2018-04-06T18:32:37.616Z,0
2018-04-06T18:32:57.898Z,0
2018-04-06T18:33:18.170Z,0
2018-04-06T18:33:38.408Z,0
2018-04-06T18:33:58.720Z,0
2018-04-06T18:34:18.969Z,0
2018-04-06T18:34:39.247Z,0
2018-04-06T18:34:59.577Z,0
2018-04-06T18:35:19.826Z,0
2018-04-06T18:35:40.101Z,0
2018-04-06T18:36:00.347Z,0
2018-04-06T18:36:20.606Z,0
2018-04-06T18:36:40.880Z,0
2018-04-06T18:37:01.121Z,0
2018-04-06T18:37:21.404Z,0
2018-04-06T18:37:41.659Z,0
2018-04-06T18:38:01.934Z,0
2018-04-06T18:38:22.213Z,0
2018-04-06T18:38:42.457Z,0
2018-04-06T18:39:02.680Z,0
2018-04-06T18:39:22.928Z,0
2018-04-06T18:39:43.499Z,0
2018-04-06T18:40:03.786Z,0
2018-04-06T18:40:24.023Z,0
2018-04-06T18:40:44.278Z,0
2018-04-06T18:41:04.519Z,0
2018-04-06T18:41:24.815Z,0
2018-04-06T18:41:45.043Z,0
2018-04-06T18:42:05.255Z,0
2018-04-06T18:42:25.465Z,0
2018-04-06T18:42:45.723Z,0
2018-04-06T18:43:06.009Z,0
2018-04-06T18:43:26.259Z,0
2018-04-06T18:43:46.490Z,0
2018-04-06T18:44:06.724Z,0
2018-04-06T18:44:27.090Z,0
2018-04-06T18:44:47.425Z,0
2018-04-06T18:45:08.376Z,0
2018-04-06T18:45:28.629Z,0
2018-04-06T18:45:48.861Z,0
2018-04-06T18:46:09.052Z,0
2018-04-06T18:46:29.459Z,0
2018-04-06T18:46:49.675Z,0
2018-04-06T18:47:09.963Z,0
2018-04-06T18:47:30.199Z,0
2018-04-06T18:47:50.478Z,0
2018-04-06T18:48:10.765Z,0
2018-04-06T18:48:31.015Z,0
2018-04-06T18:48:51.252Z,0
2018-04-06T18:49:11.504Z,0
2018-04-06T18:49:31.926Z,0
2018-04-06T18:49:52.797Z,0
2018-04-06T18:50:13.029Z,0
2018-04-06T18:50:33.390Z,0
2018-04-06T18:50:53.629Z,0
2018-04-06T18:51:13.927Z,0
2018-04-06T18:51:34.250Z,0
2018-04-06T18:51:54.528Z,0
2018-04-06T18:52:14.835Z,0
2018-04-06T18:52:35.190Z,0
2018-04-06T18:52:55.367Z,0
2018-04-06T18:53:15.739Z,0
2018-04-06T18:53:36.806Z,0
2018-04-06T18:53:57.136Z,0
2018-04-06T18:54:17.465Z,0
2018-04-06T18:54:37.771Z,0
2018-04-06T18:54:58.707Z,0
2018-04-06T18:55:18.922Z,0
2018-04-06T18:55:39.144Z,0
2018-04-06T18:55:59.499Z,0
2018-04-06T18:56:19.828Z,0
2018-04-06T18:56:40.047Z,0
2018-04-06T18:57:00.301Z,0
2018-04-06T18:57:20.559Z,0
2018-04-06T18:57:40.869Z,0
2018-04-06T18:58:01.261Z,0
2018-04-06T18:58:21.535Z,0
2018-04-06T18:58:41.890Z,0
2018-04-06T18:59:02.336Z,0
2018-04-06T18:59:22.751Z,0
2018-04-06T18:59:43.045Z,0
2018-04-06T19:00:03.467Z,0
2018-04-06T19:00:24.446Z,0
2018-04-06T19:00:45.506Z,0
2018-04-06T19:01:05.716Z,0
2018-04-06T19:01:26.080Z,0
2018-04-06T19:01:46.680Z,0
2018-04-06T19:02:07.168Z,0
2018-04-06T19:02:27.401Z,0
2018-04-06T19:02:47.672Z,0
2018-04-06T19:03:07.925Z,0
2018-04-06T19:03:28.324Z,0
2018-04-06T19:03:48.671Z,0
2018-04-06T19:04:08.899Z,0
2018-04-06T19:04:29.131Z,0
2018-04-06T19:04:49.370Z,0
2018-04-06T19:05:09.736Z,0
2018-04-06T19:05:30.028Z,0
2018-04-06T19:05:50.370Z,0
2018-04-06T19:06:10.634Z,0
2018-04-06T19:06:30.908Z,0
2018-04-06T19:06:51.250Z,0
2018-04-06T19:07:11.518Z,0
2018-04-06T19:07:31.844Z,0
2018-04-06T19:07:52.171Z,0
2018-04-06T19:08:12.420Z,0
2018-04-06T19:08:32.701Z,0
2018-04-06T19:08:52.968Z,0
2018-04-06T19:09:13.275Z,0
2018-04-06T19:09:33.576Z,0
2018-04-06T19:09:53.844Z,0
2018-04-06T19:10:14.188Z,0
2018-04-06T19:10:34.468Z,0
2018-04-06T19:10:54.787Z,0
2018-04-06T19:11:15.106Z,0
2018-04-06T19:11:35.438Z,0
2018-04-06T19:11:55.707Z,0
2018-04-06T19:12:16.975Z,0
2018-04-06T19:12:37.401Z,0
2018-04-06T19:12:57.638Z,0
2018-04-06T19:13:17.957Z,0
2018-04-06T19:13:38.174Z,0
2018-04-06T19:13:58.513Z,0
2018-04-06T19:14:18.865Z,0
2018-04-06T19:14:39.094Z,0
2018-04-06T19:14:59.834Z,0
2018-04-06T19:15:20.182Z,0
2018-04-06T19:15:40.984Z,0
2018-04-06T19:16:01.962Z,0
2018-04-06T19:16:22.233Z,0
2018-04-06T19:16:42.978Z,0
2018-04-06T19:17:03.237Z,0
2018-04-06T19:17:23.575Z,0
2018-04-06T19:17:43.774Z,0
2018-04-06T19:18:04.553Z,0